sensor_id;sensor_type;location;lat;lon;timestamp;pressure;altitude;pressure_sealevel;temperature;humidity
56825;BME280;42705;50.326;18.772;2023-05-12T00:04:10;98596.81;;;13.50;40.17
56825;BME280;42705;50.326;18.772;2023-05-12T00:09:32;98598.34;;;13.45;40.27
56825;BME280;42705;50.326;18.772;2023-05-12T00:14:54;98593.41;;;13.38;40.38
56825;BME280;42705;50.326;18.772;2023-05-12T00:20:16;98597.72;;;13.32;40.45
56825;BME280;42705;50.326;18.772;2023-05-12T00:25:38;98593.83;;;13.25;40.75
56825;BME280;42705;50.326;18.772;2023-05-12T00:31:03;98597.72;;;13.19;40.82
56825;BME280;42705;50.326;18.772;2023-05-12T00:36:25;98596.02;;;13.11;40.93
56825;BME280;42705;50.326;18.772;2023-05-12T00:41:47;98595.67;;;13.04;41.02
56825;BME280;42705;50.326;18.772;2023-05-12T00:47:10;98595.69;;;12.97;41.14
56825;BME280;42705;50.326;18.772;2023-05-12T00:52:33;98596.13;;;12.91;41.16
56825;BME280;42705;50.326;18.772;2023-05-12T00:57:55;98595.95;;;12.82;41.26
56825;BME280;42705;50.326;18.772;2023-05-12T01:03:18;98596.55;;;12.75;41.77
56825;BME280;42705;50.326;18.772;2023-05-12T01:08:41;98599.51;;;12.69;41.83
56825;BME280;42705;50.326;18.772;2023-05-12T01:14:03;98600.14;;;12.58;41.98
56825;BME280;42705;50.326;18.772;2023-05-12T01:20:02;98600.69;;;12.47;41.97
56825;BME280;42705;50.326;18.772;2023-05-12T01:25:30;98603.60;;;12.37;42.25
56825;BME280;42705;50.326;18.772;2023-05-12T01:30:54;98601.10;;;12.28;42.27
56825;BME280;42705;50.326;18.772;2023-05-12T01:36:16;98601.02;;;12.20;42.56
56825;BME280;42705;50.326;18.772;2023-05-12T01:41:38;98603.61;;;12.09;42.79
56825;BME280;42705;50.326;18.772;2023-05-12T01:53:11;98601.84;;;11.92;43.01
56825;BME280;42705;50.326;18.772;2023-05-12T01:58:34;98606.93;;;11.79;43.20
56825;BME280;42705;50.326;18.772;2023-05-12T02:03:57;98609.14;;;11.68;43.18
56825;BME280;42705;50.326;18.772;2023-05-12T02:09:20;98610.86;;;11.55;43.62
56825;BME280;42705;50.326;18.772;2023-05-12T02:14:44;98608.13;;;11.47;43.71
56825;BME280;42705;50.326;18.772;2023-05-12T02:20:07;98604.64;;;11.39;44.21
56825;BME280;42705;50.326;18.772;2023-05-12T02:25:29;98608.70;;;11.33;44.19
56825;BME280;42705;50.326;18.772;2023-05-12T02:30:51;98607.61;;;11.27;44.38
56825;BME280;42705;50.326;18.772;2023-05-12T02:36:14;98613.73;;;11.22;44.35
56825;BME280;42705;50.326;18.772;2023-05-12T02:41:36;98610.95;;;11.17;44.85
56825;BME280;42705;50.326;18.772;2023-05-12T02:46:58;98616.60;;;11.13;45.12
56825;BME280;42705;50.326;18.772;2023-05-12T02:52:20;98611.04;;;11.07;44.89
56825;BME280;42705;50.326;18.772;2023-05-12T02:57:43;98602.16;;;10.96;45.27
56825;BME280;42705;50.326;18.772;2023-05-12T03:03:05;98607.48;;;10.92;45.35
56825;BME280;42705;50.326;18.772;2023-05-12T03:08:27;98605.77;;;10.85;45.65
56825;BME280;42705;50.326;18.772;2023-05-12T03:13:49;98607.58;;;10.79;45.72
56825;BME280;42705;50.326;18.772;2023-05-12T03:19:11;98601.89;;;10.74;45.79
56825;BME280;42705;50.326;18.772;2023-05-12T03:24:33;98600.29;;;10.70;45.86
56825;BME280;42705;50.326;18.772;2023-05-12T03:29:55;98603.88;;;10.67;46.31
56825;BME280;42705;50.326;18.772;2023-05-12T03:35:18;98609.95;;;10.64;46.55
56825;BME280;42705;50.326;18.772;2023-05-12T03:40:41;98612.27;;;10.61;46.39
56825;BME280;42705;50.326;18.772;2023-05-12T03:46:03;98612.75;;;10.62;46.59
56825;BME280;42705;50.326;18.772;2023-05-12T03:51:25;98615.26;;;10.61;46.51
56825;BME280;42705;50.326;18.772;2023-05-12T03:56:48;98615.84;;;10.63;46.65
56825;BME280;42705;50.326;18.772;2023-05-12T04:02:10;98617.36;;;10.65;46.85
56825;BME280;42705;50.326;18.772;2023-05-12T04:07:34;98619.55;;;10.68;46.93
56825;BME280;42705;50.326;18.772;2023-05-12T04:12:57;98618.42;;;10.73;46.98
56825;BME280;42705;50.326;18.772;2023-05-12T04:18:19;98624.84;;;10.77;47.16
56825;BME280;42705;50.326;18.772;2023-05-12T04:23:41;98625.84;;;10.84;47.40
56825;BME280;42705;50.326;18.772;2023-05-12T04:29:03;98627.10;;;10.93;47.33
56825;BME280;42705;50.326;18.772;2023-05-12T04:34:26;98630.41;;;11.01;47.22
56825;BME280;42705;50.326;18.772;2023-05-12T04:39:48;98628.73;;;11.08;47.16
56825;BME280;42705;50.326;18.772;2023-05-12T04:45:11;98635.62;;;11.17;47.40
56825;BME280;42705;50.326;18.772;2023-05-12T04:50:32;98638.67;;;11.24;47.08
56825;BME280;42705;50.326;18.772;2023-05-12T04:55:54;98637.54;;;11.31;47.19
56825;BME280;42705;50.326;18.772;2023-05-12T05:01:17;98643.60;;;11.37;47.40
56825;BME280;42705;50.326;18.772;2023-05-12T05:06:40;98642.29;;;11.42;47.34
56825;BME280;42705;50.326;18.772;2023-05-12T05:12:02;98643.23;;;11.49;47.32
56825;BME280;42705;50.326;18.772;2023-05-12T05:17:25;98646.81;;;11.58;47.32
56825;BME280;42705;50.326;18.772;2023-05-12T05:22:48;98647.05;;;11.65;47.28
56825;BME280;42705;50.326;18.772;2023-05-12T05:28:11;98652.58;;;11.73;47.44
56825;BME280;42705;50.326;18.772;2023-05-12T05:33:33;98649.62;;;11.82;47.67
56825;BME280;42705;50.326;18.772;2023-05-12T05:38:55;98654.29;;;11.93;47.32
56825;BME280;42705;50.326;18.772;2023-05-12T05:44:17;98651.59;;;12.03;47.22
56825;BME280;42705;50.326;18.772;2023-05-12T05:49:40;98652.17;;;12.16;47.30
56825;BME280;42705;50.326;18.772;2023-05-12T05:55:03;98658.66;;;12.27;47.20
56825;BME280;42705;50.326;18.772;2023-05-12T06:00:26;98657.16;;;12.39;47.17
56825;BME280;42705;50.326;18.772;2023-05-12T06:05:49;98667.33;;;12.54;47.06
56825;BME280;42705;50.326;18.772;2023-05-12T06:11:12;98664.36;;;12.68;46.94
56825;BME280;42705;50.326;18.772;2023-05-12T06:16:33;98663.58;;;12.82;46.90
56825;BME280;42705;50.326;18.772;2023-05-12T06:21:55;98668.93;;;12.95;46.71
56825;BME280;42705;50.326;18.772;2023-05-12T06:27:17;98666.98;;;13.10;46.59
56825;BME280;42705;50.326;18.772;2023-05-12T06:32:41;98670.30;;;13.25;46.45
56825;BME280;42705;50.326;18.772;2023-05-12T06:38:03;98669.39;;;13.39;46.29
56825;BME280;42705;50.326;18.772;2023-05-12T06:43:25;98667.31;;;13.57;46.15
56825;BME280;42705;50.326;18.772;2023-05-12T06:48:49;98664.23;;;13.74;45.79
56825;BME280;42705;50.326;18.772;2023-05-12T06:54:11;98669.72;;;13.89;45.34
56825;BME280;42705;50.326;18.772;2023-05-12T06:59:33;98672.94;;;14.04;45.16
56825;BME280;42705;50.326;18.772;2023-05-12T07:04:55;98673.03;;;14.19;45.11
56825;BME280;42705;50.326;18.772;2023-05-12T07:10:17;98671.21;;;14.35;44.71
56825;BME280;42705;50.326;18.772;2023-05-12T07:15:41;98668.23;;;14.50;44.62
56825;BME280;42705;50.326;18.772;2023-05-12T07:21:03;98665.09;;;14.66;44.54
56825;BME280;42705;50.326;18.772;2023-05-12T07:26:25;98663.83;;;14.83;44.47
56825;BME280;42705;50.326;18.772;2023-05-12T07:31:49;98659.83;;;15.00;44.06
56825;BME280;42705;50.326;18.772;2023-05-12T07:37:11;98661.91;;;15.15;43.58
56825;BME280;42705;50.326;18.772;2023-05-12T07:42:33;98666.14;;;15.31;43.39
56825;BME280;42705;50.326;18.772;2023-05-12T07:47:55;98663.33;;;15.46;42.97
56825;BME280;42705;50.326;18.772;2023-05-12T07:53:16;98663.90;;;15.62;43.16
56825;BME280;42705;50.326;18.772;2023-05-12T07:58:38;98659.71;;;15.76;43.18
56825;BME280;42705;50.326;18.772;2023-05-12T08:04:00;98661.15;;;15.94;42.90
56825;BME280;42705;50.326;18.772;2023-05-12T08:09:22;98658.89;;;16.10;42.87
56825;BME280;42705;50.326;18.772;2023-05-12T08:14:44;98659.26;;;16.26;42.30
56825;BME280;42705;50.326;18.772;2023-05-12T08:20:06;98659.19;;;16.41;42.15
56825;BME280;42705;50.326;18.772;2023-05-12T08:25:29;98659.16;;;16.58;41.72
56825;BME280;42705;50.326;18.772;2023-05-12T08:30:51;98661.53;;;16.76;41.11
56825;BME280;42705;50.326;18.772;2023-05-12T08:36:13;98667.52;;;16.94;41.26
56825;BME280;42705;50.326;18.772;2023-05-12T08:41:42;98662.59;;;17.13;41.09
56825;BME280;42705;50.326;18.772;2023-05-12T08:47:05;98663.96;;;17.30;40.29
56825;BME280;42705;50.326;18.772;2023-05-12T08:52:32;98665.66;;;17.44;40.12
56825;BME280;42705;50.326;18.772;2023-05-12T08:57:55;98669.03;;;17.63;39.95
56825;BME280;42705;50.326;18.772;2023-05-12T09:03:19;98664.89;;;17.80;39.57
56825;BME280;42705;50.326;18.772;2023-05-12T09:08:42;98666.34;;;17.96;38.99
56825;BME280;42705;50.326;18.772;2023-05-12T09:14:07;98665.53;;;18.10;38.90
56825;BME280;42705;50.326;18.772;2023-05-12T09:19:30;98660.14;;;18.22;38.56
56825;BME280;42705;50.326;18.772;2023-05-12T09:24:52;98662.81;;;18.40;37.35
56825;BME280;42705;50.326;18.772;2023-05-12T09:30:14;98662.90;;;18.63;37.31
56825;BME280;42705;50.326;18.772;2023-05-12T09:35:38;98663.31;;;18.89;36.77
56825;BME280;42705;50.326;18.772;2023-05-12T09:41:00;98657.36;;;19.14;35.95
56825;BME280;42705;50.326;18.772;2023-05-12T09:46:23;98655.88;;;19.42;35.43
56825;BME280;42705;50.326;18.772;2023-05-12T09:51:45;98653.16;;;19.65;34.50
56825;BME280;42705;50.326;18.772;2023-05-12T09:57:08;98650.19;;;19.78;34.17
56825;BME280;42705;50.326;18.772;2023-05-12T10:02:33;98655.09;;;19.88;33.93
56825;BME280;42705;50.326;18.772;2023-05-12T10:07:56;98654.77;;;20.01;33.73
56825;BME280;42705;50.326;18.772;2023-05-12T10:13:21;98652.71;;;20.17;33.53
56825;BME280;42705;50.326;18.772;2023-05-12T10:18:43;98656.39;;;20.31;33.43
56825;BME280;42705;50.326;18.772;2023-05-12T10:24:05;98651.70;;;20.42;33.55
56825;BME280;42705;50.326;18.772;2023-05-12T10:29:28;98661.25;;;20.49;33.17
56825;BME280;42705;50.326;18.772;2023-05-12T10:34:53;98659.60;;;20.63;32.68
56825;BME280;42705;50.326;18.772;2023-05-12T10:40:33;98652.26;;;20.73;32.41
56825;BME280;42705;50.326;18.772;2023-05-12T10:46:05;98647.95;;;20.90;32.16
56825;BME280;42705;50.326;18.772;2023-05-12T10:51:46;98645.17;;;21.03;32.24
56825;BME280;42705;50.326;18.772;2023-05-12T10:57:13;98646.69;;;21.09;31.78
56825;BME280;42705;50.326;18.772;2023-05-12T11:02:36;98643.98;;;21.22;31.69
56825;BME280;42705;50.326;18.772;2023-05-12T11:07:58;98645.44;;;21.28;31.88
56825;BME280;42705;50.326;18.772;2023-05-12T11:13:20;98639.30;;;21.39;31.31
56825;BME280;42705;50.326;18.772;2023-05-12T11:18:42;98640.17;;;21.48;31.25
56825;BME280;42705;50.326;18.772;2023-05-12T11:24:04;98645.45;;;21.58;30.49
56825;BME280;42705;50.326;18.772;2023-05-12T11:29:27;98645.70;;;21.60;30.22
56825;BME280;42705;50.326;18.772;2023-05-12T11:34:48;98647.13;;;21.61;30.39
56825;BME280;42705;50.326;18.772;2023-05-12T11:45:38;98654.43;;;21.55;30.39
56825;BME280;42705;50.326;18.772;2023-05-12T11:51:03;98652.91;;;21.55;30.30
56825;BME280;42705;50.326;18.772;2023-05-12T11:56:25;98659.11;;;21.44;30.36
56825;BME280;42705;50.326;18.772;2023-05-12T12:01:47;98664.35;;;21.21;30.43
56825;BME280;42705;50.326;18.772;2023-05-12T12:07:09;98667.61;;;20.86;30.42
56825;BME280;42705;50.326;18.772;2023-05-12T12:12:31;98662.35;;;20.52;30.57
56825;BME280;42705;50.326;18.772;2023-05-12T12:17:54;98661.98;;;20.32;30.83
56825;BME280;42705;50.326;18.772;2023-05-12T12:23:17;98663.30;;;20.25;30.79
56825;BME280;42705;50.326;18.772;2023-05-12T12:28:38;98671.50;;;20.55;30.87
56825;BME280;42705;50.326;18.772;2023-05-12T12:34:02;98669.89;;;20.71;30.67
56825;BME280;42705;50.326;18.772;2023-05-12T12:39:24;98672.86;;;20.87;30.22
56825;BME280;42705;50.326;18.772;2023-05-12T12:44:46;98675.88;;;21.14;29.91
56825;BME280;42705;50.326;18.772;2023-05-12T12:50:10;98672.41;;;21.15;29.87
56825;BME280;42705;50.326;18.772;2023-05-12T12:55:32;98670.59;;;21.18;29.93
56825;BME280;42705;50.326;18.772;2023-05-12T13:00:54;98671.73;;;21.40;29.66
56825;BME280;42705;50.326;18.772;2023-05-12T13:06:16;98673.98;;;21.72;29.51
56825;BME280;42705;50.326;18.772;2023-05-12T13:11:39;98673.85;;;22.19;29.46
56825;BME280;42705;50.326;18.772;2023-05-12T13:17:01;98670.95;;;23.86;28.23
56825;BME280;42705;50.326;18.772;2023-05-12T13:22:23;98662.91;;;25.91;26.43
56825;BME280;42705;50.326;18.772;2023-05-12T13:27:47;98666.68;;;27.05;25.34
56825;BME280;42705;50.326;18.772;2023-05-12T13:33:08;98658.44;;;27.89;24.16
56825;BME280;42705;50.326;18.772;2023-05-12T13:38:31;98657.20;;;27.66;23.85
56825;BME280;42705;50.326;18.772;2023-05-12T13:43:54;98648.98;;;29.56;22.90
56825;BME280;42705;50.326;18.772;2023-05-12T13:49:16;98644.34;;;30.45;21.98
56825;BME280;42705;50.326;18.772;2023-05-12T13:54:40;98645.52;;;29.37;22.09
56825;BME280;42705;50.326;18.772;2023-05-12T14:00:03;98639.67;;;29.42;21.41
56825;BME280;42705;50.326;18.772;2023-05-12T14:05:26;98636.58;;;32.41;20.05
56825;BME280;42705;50.326;18.772;2023-05-12T14:10:47;98630.02;;;33.39;19.97
56825;BME280;42705;50.326;18.772;2023-05-12T14:16:09;98641.98;;;31.51;19.73
56825;BME280;42705;50.326;18.772;2023-05-12T14:21:34;98636.73;;;31.27;19.67
56825;BME280;42705;50.326;18.772;2023-05-12T14:26:56;98631.88;;;33.32;18.56
56825;BME280;42705;50.326;18.772;2023-05-12T14:32:19;98636.98;;;33.07;18.66
56825;BME280;42705;50.326;18.772;2023-05-12T14:37:41;98643.77;;;31.64;18.72
56825;BME280;42705;50.326;18.772;2023-05-12T14:43:02;98639.79;;;30.54;19.53
56825;BME280;42705;50.326;18.772;2023-05-12T14:48:26;98646.22;;;29.78;19.96
56825;BME280;42705;50.326;18.772;2023-05-12T14:53:47;98636.29;;;30.25;19.91
56825;BME280;42705;50.326;18.772;2023-05-12T14:59:09;98640.96;;;31.13;19.66
56825;BME280;42705;50.326;18.772;2023-05-12T15:04:31;98640.91;;;31.78;19.11
56825;BME280;42705;50.326;18.772;2023-05-12T15:09:53;98635.48;;;31.99;18.90
56825;BME280;42705;50.326;18.772;2023-05-12T15:15:15;98643.59;;;30.88;19.11
56825;BME280;42705;50.326;18.772;2023-05-12T15:20:37;98646.34;;;29.34;19.81
56825;BME280;42705;50.326;18.772;2023-05-12T15:26:04;98650.16;;;27.87;20.36
56825;BME280;42705;50.326;18.772;2023-05-12T15:31:29;98647.55;;;26.59;21.01
56825;BME280;42705;50.326;18.772;2023-05-12T15:36:51;98652.23;;;25.45;21.46
56825;BME280;42705;50.326;18.772;2023-05-12T15:42:13;98655.04;;;24.68;22.27
56825;BME280;42705;50.326;18.772;2023-05-12T15:47:35;98654.77;;;24.08;23.03
56825;BME280;42705;50.326;18.772;2023-05-12T15:52:57;98651.35;;;23.60;23.25
56825;BME280;42705;50.326;18.772;2023-05-12T15:58:19;98652.08;;;23.30;23.62
56825;BME280;42705;50.326;18.772;2023-05-12T16:03:41;98653.33;;;23.77;23.73
56825;BME280;42705;50.326;18.772;2023-05-12T16:09:02;98657.02;;;24.42;23.32
56825;BME280;42705;50.326;18.772;2023-05-12T16:14:24;98654.05;;;24.92;22.95
56825;BME280;42705;50.326;18.772;2023-05-12T16:19:46;98653.48;;;25.44;22.72
56825;BME280;42705;50.326;18.772;2023-05-12T16:25:08;98652.04;;;25.79;22.26
56825;BME280;42705;50.326;18.772;2023-05-12T16:30:30;98656.79;;;26.01;22.14
56825;BME280;42705;50.326;18.772;2023-05-12T16:35:52;98659.02;;;25.98;21.81
56825;BME280;42705;50.326;18.772;2023-05-12T16:41:14;98665.70;;;25.37;21.70
56825;BME280;42705;50.326;18.772;2023-05-12T16:46:37;98671.52;;;24.46;22.17
56825;BME280;42705;50.326;18.772;2023-05-12T16:51:59;98681.66;;;23.59;22.74
56825;BME280;42705;50.326;18.772;2023-05-12T16:57:20;98682.80;;;22.96;23.48
56825;BME280;42705;50.326;18.772;2023-05-12T17:02:42;98689.86;;;22.64;23.91
56825;BME280;42705;50.326;18.772;2023-05-12T17:08:04;98691.15;;;22.38;24.16
56825;BME280;42705;50.326;18.772;2023-05-12T17:13:26;98696.34;;;22.32;24.35
56825;BME280;42705;50.326;18.772;2023-05-12T17:18:48;98697.52;;;22.37;24.48
56825;BME280;42705;50.326;18.772;2023-05-12T17:24:10;98701.33;;;22.25;24.62
56825;BME280;42705;50.326;18.772;2023-05-12T17:29:32;98707.52;;;21.97;24.90
56825;BME280;42705;50.326;18.772;2023-05-12T17:34:53;98711.51;;;21.47;25.09
56825;BME280;42705;50.326;18.772;2023-05-12T17:40:18;98718.17;;;21.03;25.69
56825;BME280;42705;50.326;18.772;2023-05-12T17:45:39;98726.11;;;20.70;26.12
56825;BME280;42705;50.326;18.772;2023-05-12T17:51:02;98725.57;;;20.23;26.48
56825;BME280;42705;50.326;18.772;2023-05-12T17:56:24;98729.61;;;19.76;26.96
56825;BME280;42705;50.326;18.772;2023-05-12T18:01:46;98737.15;;;19.29;27.47
56825;BME280;42705;50.326;18.772;2023-05-12T18:07:08;98738.14;;;18.90;27.88
56825;BME280;42705;50.326;18.772;2023-05-12T18:12:30;98739.30;;;18.61;28.50
56825;BME280;42705;50.326;18.772;2023-05-12T18:17:53;98742.23;;;18.29;28.81
56825;BME280;42705;50.326;18.772;2023-05-12T18:23:16;98747.20;;;17.96;29.36
56825;BME280;42705;50.326;18.772;2023-05-12T18:28:39;98750.31;;;17.69;29.58
56825;BME280;42705;50.326;18.772;2023-05-12T18:34:03;98762.20;;;17.43;30.08
56825;BME280;42705;50.326;18.772;2023-05-12T18:39:28;98766.35;;;17.16;30.37
56825;BME280;42705;50.326;18.772;2023-05-12T18:44:54;98769.10;;;16.94;30.96
56825;BME280;42705;50.326;18.772;2023-05-12T18:50:16;98779.52;;;16.76;31.17
56825;BME280;42705;50.326;18.772;2023-05-12T18:55:42;98783.41;;;16.62;31.39
56825;BME280;42705;50.326;18.772;2023-05-12T19:01:04;98784.48;;;16.48;31.76
56825;BME280;42705;50.326;18.772;2023-05-12T19:06:28;98788.27;;;16.34;31.94
56825;BME280;42705;50.326;18.772;2023-05-12T19:11:51;98790.31;;;16.20;32.29
56825;BME280;42705;50.326;18.772;2023-05-12T19:17:14;98794.02;;;16.05;32.74
56825;BME280;42705;50.326;18.772;2023-05-12T19:22:37;98798.27;;;15.95;32.85
56825;BME280;42705;50.326;18.772;2023-05-12T19:28:00;98798.48;;;15.83;33.18
56825;BME280;42705;50.326;18.772;2023-05-12T19:33:23;98801.61;;;15.70;33.40
56825;BME280;42705;50.326;18.772;2023-05-12T19:38:48;98810.15;;;15.57;33.48
56825;BME280;42705;50.326;18.772;2023-05-12T19:44:10;98807.33;;;15.46;33.69
56825;BME280;42705;50.326;18.772;2023-05-12T19:49:33;98810.25;;;15.36;33.98
56825;BME280;42705;50.326;18.772;2023-05-12T19:54:55;98813.59;;;15.26;34.09
56825;BME280;42705;50.326;18.772;2023-05-12T20:00:18;98811.92;;;15.14;34.40
56825;BME280;42705;50.326;18.772;2023-05-12T20:05:43;98807.50;;;15.04;34.40
56825;BME280;42705;50.326;18.772;2023-05-12T20:11:06;98811.96;;;14.96;34.55
56825;BME280;42705;50.326;18.772;2023-05-12T20:16:28;98814.73;;;14.88;35.03
56825;BME280;42705;50.326;18.772;2023-05-12T20:21:50;98811.23;;;14.81;35.35
56825;BME280;42705;50.326;18.772;2023-05-12T20:27:12;98812.56;;;14.75;35.37
56825;BME280;42705;50.326;18.772;2023-05-12T20:32:36;98809.13;;;14.68;35.49
56825;BME280;42705;50.326;18.772;2023-05-12T20:38:07;98799.55;;;14.64;35.61
56825;BME280;42705;50.326;18.772;2023-05-12T20:43:29;98794.54;;;14.58;35.65
56825;BME280;42705;50.326;18.772;2023-05-12T20:48:52;98793.87;;;14.51;35.84
56825;BME280;42705;50.326;18.772;2023-05-12T20:54:17;98801.36;;;14.46;36.06
56825;BME280;42705;50.326;18.772;2023-05-12T20:59:41;98800.98;;;14.41;36.21
56825;BME280;42705;50.326;18.772;2023-05-12T21:05:04;98805.49;;;14.36;36.25
56825;BME280;42705;50.326;18.772;2023-05-12T21:10:30;98805.17;;;14.31;36.39
56825;BME280;42705;50.326;18.772;2023-05-12T21:15:52;98807.44;;;14.26;36.58
56825;BME280;42705;50.326;18.772;2023-05-12T21:21:15;98806.61;;;14.18;36.75
56825;BME280;42705;50.326;18.772;2023-05-12T21:26:37;98806.63;;;14.08;36.87
56825;BME280;42705;50.326;18.772;2023-05-12T21:31:59;98801.45;;;13.99;37.03
56825;BME280;42705;50.326;18.772;2023-05-12T21:37:22;98802.06;;;13.91;37.21
56825;BME280;42705;50.326;18.772;2023-05-12T21:42:44;98808.30;;;13.87;37.40
56825;BME280;42705;50.326;18.772;2023-05-12T21:48:06;98803.95;;;13.81;37.37
56825;BME280;42705;50.326;18.772;2023-05-12T21:53:28;98809.56;;;13.74;37.37
56825;BME280;42705;50.326;18.772;2023-05-12T21:58:50;98814.17;;;13.70;37.55
56825;BME280;42705;50.326;18.772;2023-05-12T22:04:12;98816.10;;;13.68;37.73
56825;BME280;42705;50.326;18.772;2023-05-12T22:09:34;98830.05;;;13.68;37.81
56825;BME280;42705;50.326;18.772;2023-05-12T22:14:55;98853.14;;;13.63;37.94
56825;BME280;42705;50.326;18.772;2023-05-12T22:20:17;98855.98;;;13.55;38.00
56825;BME280;42705;50.326;18.772;2023-05-12T22:25:39;98851.33;;;13.56;38.22
56825;BME280;42705;50.326;18.772;2023-05-12T22:31:01;98849.40;;;13.58;38.36
56825;BME280;42705;50.326;18.772;2023-05-12T22:36:23;98859.35;;;13.60;38.50
56825;BME280;42705;50.326;18.772;2023-05-12T22:41:45;98853.96;;;13.59;38.82
56825;BME280;42705;50.326;18.772;2023-05-12T22:47:07;98856.17;;;13.58;39.00
56825;BME280;42705;50.326;18.772;2023-05-12T22:52:28;98857.49;;;13.57;38.95
56825;BME280;42705;50.326;18.772;2023-05-12T22:57:50;98854.77;;;13.58;39.22
56825;BME280;42705;50.326;18.772;2023-05-12T23:03:12;98856.27;;;13.61;39.23
56825;BME280;42705;50.326;18.772;2023-05-12T23:08:34;98861.64;;;13.64;39.41
56825;BME280;42705;50.326;18.772;2023-05-12T23:13:56;98864.29;;;13.66;39.56
56825;BME280;42705;50.326;18.772;2023-05-12T23:19:18;98865.92;;;13.65;39.49
56825;BME280;42705;50.326;18.772;2023-05-12T23:24:40;98867.98;;;13.64;39.46
56825;BME280;42705;50.326;18.772;2023-05-12T23:30:02;98866.22;;;13.66;39.63
56825;BME280;42705;50.326;18.772;2023-05-12T23:35:24;98866.40;;;13.67;39.96
56825;BME280;42705;50.326;18.772;2023-05-12T23:40:47;98861.36;;;13.68;39.95
56825;BME280;42705;50.326;18.772;2023-05-12T23:46:08;98861.73;;;13.70;40.35
56825;BME280;42705;50.326;18.772;2023-05-12T23:51:30;98858.60;;;13.70;40.61
56825;BME280;42705;50.326;18.772;2023-05-12T23:56:53;98859.08;;;13.65;40.58
